Date,TemperatureHighF,TemperatureAvgF,TemperatureLowF,DewpointHighF,DewpointAvgF,DewpointLowF,HumidityHigh,HumidityAvg,HumidityLow,PressureMaxIn,PressureMinIn,WindSpeedMaxMPH,WindSpeedAvgMPH,GustSpeedMaxMPH,PrecipitationSumIn
2013-1-1,25.7,17.7,11.0,17.4,12.3,8.1,89,79,61,30.09,29.96,21,2,21,0.00
2013-1-2,32.4,20.3,12.6,14.1,8.0,1.6,75,59,38,30.16,30.07,17,6,17,0.00
2013-1-3,24.5,12.3,4.0,9.4,3.8,-0.6,83,69,51,30.16,30.05,9,0,9,0.00
2013-1-4,26.9,14.3,4.0,10.8,5.4,-1.7,84,68,49,30.05,29.96,11,0,11,0.00
2013-1-5,23.2,14.4,6.6,12.5,6.7,0.2,80,71,62,30.15,30.01,11,1,11,0.00
2013-1-6,27.1,17.2,6.3,15.1,9.9,1.2,84,73,57,30.03,29.80,21,1,21,0.00
2013-1-7,40.9,27.9,14.2,23.0,16.3,9.2,81,63,41,29.85,29.62,45,7,45,0.00
2013-1-8,44.1,39.3,28.1,22.8,19.1,16.4,70,44,33,29.95,29.62,46,19,46,0.00
2013-1-9,44.9,34.7,25.0,27.6,23.3,16.8,79,64,44,29.98,29.66,27,6,27,0.00
2013-1-10,44.3,29.8,18.0,28.1,22.3,14.5,90,75,52,29.66,29.39,40,8,40,0.00
2013-1-11,18.1,9.7,7.1,14.7,5.6,1.8,93,83,77,29.90,29.46,42,18,42,0.00
2013-1-12,9.8,6.7,2.3,4.9,2.5,-1.7,94,83,78,29.95,29.88,20,1,20,0.00
2013-1-13,10.7,3.4,-4.2,5.1,-0.6,-8.1,93,83,76,30.01,29.95,8,1,8,0.00
2013-1-14,10.3,3.6,-6.1,4.5,-1.4,-10.1,93,80,69,30.02,29.88,15,1,15,0.00
2013-1-15,18.5,13.2,8.9,12.6,8.5,4.1,93,81,69,30.06,29.93,13,1,13,0.00
2013-1-16,23.5,14.4,6.1,15.4,9.4,1.8,93,80,71,30.21,30.05,11,1,11,0.00
2013-1-17,24.4,14.4,6.1,15.9,10.0,3.2,91,83,69,30.24,30.02,10,1,10,0.00
2013-1-18,46.4,27.3,12.0,22.9,15.4,8.3,90,64,33,30.03,29.84,38,7,38,0.00
2013-1-19,43.4,32.4,21.7,20.2,16.3,11.9,72,53,31,30.09,29.93,38,6,38,0.00
2013-1-20,40.0,27.1,14.7,21.1,17.4,10.9,89,68,36,30.21,29.99,36,6,36,0.00
2013-1-21,28.7,19.4,11.9,20.6,15.1,9.5,92,83,71,30.10,29.90,12,1,12,0.00
2013-1-22,31.8,22.2,11.7,21.0,15.6,8.4,90,76,63,29.99,29.91,19,1,19,0.00
2013-1-23,32.3,24.7,18.0,20.8,17.5,12.1,83,74,61,30.00,29.88,13,1,13,0.00
2013-1-24,52.7,38.6,17.5,29.0,22.3,11.4,83,54,37,29.97,29.76,58,15,58,0.00
2013-1-25,48.1,39.4,28.6,30.7,25.3,20.5,81,58,37,29.97,29.84,49,8,49,0.00
2013-1-26,43.6,32.0,24.0,28.6,24.0,18.9,85,73,53,29.85,29.63,11,1,11,0.00
2013-1-27,37.4,31.8,27.4,30.3,26.8,19.1,94,82,71,29.70,29.61,31,10,31,0.00
2013-1-28,33.0,26.3,19.8,22.5,18.0,8.0,84,71,52,29.73,29.64,20,4,20,0.00
2013-1-29,25.1,16.6,5.9,21.3,11.0,1.3,90,79,50,29.95,29.61,31,4,31,0.00
2013-1-30,22.8,15.8,7.9,20.8,12.8,4.3,93,88,84,29.87,29.75,11,1,11,0.00
2013-1-31,26.3,21.7,16.4,22.2,18.8,14.2,93,89,78,30.01,29.85,10,2,13,0.03
2013-2-1,38.8,24.7,14.7,29.5,21.0,12.2,94,86,67,30.10,29.89,13,1,13,0.00
2013-2-2,30.1,19.9,12.0,26.6,17.2,9.5,100,89,73,30.19,30.09,12,1,12,0.01
2013-2-3,30.2,20.3,13.0,23.0,16.7,10.6,93,86,71,30.09,29.83,14,1,14,0.00
2013-2-4,46.5,35.3,17.5,26.5,21.6,14.2,88,59,41,29.84,29.72,41,14,41,0.00
2013-2-5,36.9,28.1,22.9,25.7,21.4,17.5,85,76,62,29.85,29.69,13,1,13,0.00
2013-2-6,43.2,35.3,22.6,26.7,22.6,15.5,88,61,44,29.95,29.69,30,4,30,0.00
2013-2-7,33.4,25.5,15.2,24.2,18.3,11.0,90,75,49,29.97,29.80,19,2,19,0.00
2013-2-8,41.6,28.9,15.8,23.2,18.6,10.8,91,67,38,29.81,29.72,18,3,18,0.00
2013-2-9,36.0,30.6,23.3,25.6,23.0,17.5,85,73,60,29.75,29.64,26,8,26,0.00
2013-2-10,28.3,22.9,11.3,25.2,17.6,7.2,92,80,63,29.97,29.73,32,13,32,0.00
2013-2-11,26.5,15.0,2.9,16.1,9.0,-0.3,88,78,62,29.97,29.85,18,3,18,0.00
2013-2-12,32.0,18.6,8.9,17.1,11.2,5.4,87,73,50,29.97,29.85,13,1,13,0.00
2013-2-13,44.2,30.1,17.7,29.1,20.8,11.3,93,69,47,29.94,29.80,33,4,33,0.00
2013-2-14,32.9,25.6,22.0,29.2,20.6,16.2,93,82,64,30.18,29.93,33,5,33,0.00
2013-2-15,32.9,24.3,18.1,27.1,21.3,16.2,93,88,74,30.20,30.06,16,2,16,0.01
2013-2-16,39.8,25.7,15.3,28.6,19.9,13.4,93,80,60,30.07,29.72,18,2,18,0.00
2013-2-17,41.4,30.2,18.1,31.1,21.2,14.4,93,71,39,29.83,29.58,36,8,36,0.00
2013-2-18,32.7,26.4,18.5,23.1,19.2,13.7,87,75,50,29.95,29.83,22,4,22,0.00
2013-2-19,34.7,22.3,12.2,19.6,14.5,9.0,91,73,45,29.86,29.61,17,2,17,0.00
2013-2-20,32.7,24.8,18.3,21.5,17.0,11.1,81,72,58,29.73,29.62,23,6,23,0.00
2013-2-21,30.1,23.6,14.4,23.8,19.0,11.2,90,83,70,29.81,29.73,12,1,12,0.01
2013-2-22,36.2,23.7,11.9,23.4,14.9,8.9,92,71,40,29.84,29.61,24,4,24,0.00
2013-2-23,31.9,27.4,21.5,25.8,17.5,13.3,81,66,51,29.82,29.54,35,6,35,0.00
2013-2-24,37.2,28.9,20.6,22.0,17.0,10.0,84,62,34,29.99,29.81,26,8,26,0.00
2013-2-25,37.7,26.2,14.8,20.7,16.3,9.0,85,67,45,29.92,29.71,20,3,20,0.00
2013-2-26,38.9,31.0,21.2,21.4,13.6,8.1,70,49,30,30.06,29.78,30,7,30,0.00
2013-2-27,36.8,26.0,15.7,20.9,14.2,6.2,78,61,45,30.08,30.04,15,4,18,0.00
2013-2-28,40.2,31.8,23.0,21.0,15.1,9.1,73,51,36,30.14,30.05,25,5,31,0.00
2013-3-1,46.6,32.7,21.4,27.5,21.5,14.4,78,64,46,30.17,30.09,14,2,14,0.00
2013-3-2,51.4,38.0,24.9,32.8,27.6,20.0,89,68,41,30.14,29.78,29,4,29,0.00
2013-3-3,58.9,44.4,29.0,34.0,25.3,8.7,86,49,25,29.78,29.46,46,15,46,0.00
2013-3-4,30.1,24.7,13.2,15.9,10.2,4.5,73,54,40,30.13,29.75,42,14,42,0.00
2013-3-5,38.2,23.7,10.1,16.2,11.1,4.7,86,61,33,30.12,29.89,23,4,23,0.00
2013-3-6,51.1,34.1,15.4,31.1,19.4,6.3,79,57,33,29.89,29.59,33,5,33,0.00
2013-3-7,51.4,42.5,32.4,24.5,15.7,10.4,49,34,22,29.87,29.68,32,10,33,0.00
2013-3-8,47.1,38.0,28.0,29.3,23.4,10.9,71,56,42,29.85,29.71,27,7,27,0.00
2013-3-9,43.6,35.9,24.1,26.9,19.7,10.6,76,53,35,30.07,29.76,34,12,34,0.00
2013-3-10,47.9,35.3,20.5,22.1,18.0,10.9,70,51,34,30.08,29.87,31,5,31,0.00
2013-3-11,46.4,38.0,25.9,26.7,22.8,17.9,78,55,36,30.12,29.84,42,9,42,0.00
2013-3-12,45.0,30.1,14.6,21.4,17.9,10.7,90,63,38,30.14,29.96,21,6,22,0.00
2013-3-13,62.5,44.7,26.4,30.1,24.0,16.2,70,47,27,30.04,29.96,33,9,33,0.00
2013-3-14,65.8,54.5,36.4,34.1,28.7,20.5,69,39,25,30.06,29.88,30,7,30,0.00
2013-3-15,65.8,56.2,43.0,29.2,23.9,18.6,52,29,18,29.89,29.78,40,11,40,0.00
2013-3-16,52.3,43.6,33.7,33.6,28.8,20.9,78,57,39,29.90,29.59,16,4,16,0.00
2013-3-17,39.7,34.4,26.0,31.8,21.3,9.0,93,61,30,29.77,29.40,40,10,40,0.00
2013-3-18,40.9,30.9,18.5,22.0,11.3,2.3,72,47,22,29.83,29.73,40,11,40,0.00
2013-3-19,39.9,31.7,21.3,22.0,14.9,2.8,81,52,32,30.08,29.83,22,4,31,0.00
2013-3-20,53.8,35.8,20.3,28.1,17.0,2.7,65,48,27,30.07,29.53,20,3,24,0.00
2013-3-21,43.6,35.8,28.1,30.9,23.4,14.2,94,62,33,29.78,29.47,35,10,35,0.00
2013-3-22,34.6,27.4,18.0,20.6,14.2,5.9,86,59,31,29.94,29.74,32,10,32,0.00
2013-3-23,30.1,22.5,14.5,15.9,11.3,3.8,93,64,33,30.06,29.94,22,6,22,0.00
2013-3-24,33.0,22.1,11.4,11.5,7.3,-2.8,77,55,32,30.08,30.03,31,9,31,0.00
2013-3-25,42.7,26.9,10.1,12.4,6.2,-1.6,71,44,23,30.08,29.91,27,5,27,0.00
2013-3-26,50.3,35.1,20.2,18.5,11.0,-0.7,51,38,27,29.92,29.80,16,2,16,0.00
2013-3-27,55.7,42.2,22.2,28.1,18.4,6.0,63,40,27,29.91,29.84,22,3,22,0.00
2013-3-28,61.2,47.8,32.9,28.0,24.1,14.2,63,41,26,29.98,29.89,19,5,19,0.00
2013-3-29,58.9,47.4,38.0,40.2,28.6,16.3,91,50,36,30.05,29.92,33,4,33,0.08
2013-3-30,56.1,46.0,35.5,39.9,31.8,22.7,92,62,28,30.06,29.98,28,8,28,0.00
2013-3-31,59.3,44.6,30.1,29.2,25.7,22.4,78,51,29,29.98,29.90,24,6,31,0.00
2013-4-1,58.2,44.6,28.6,26.5,22.2,16.0,72,44,26,30.00,29.90,13,2,13,0.00
2013-4-2,64.1,46.9,26.9,28.2,22.0,13.5,65,40,22,29.97,29.84,20,4,20,0.00
2013-4-3,62.9,49.0,34.9,32.0,24.7,13.3,62,40,25,29.98,29.86,29,4,29,0.00
2013-4-4,67.8,54.1,38.9,36.0,31.7,25.2,67,45,25,29.96,29.74,22,2,24,0.00
2013-4-5,60.9,54.1,45.7,40.4,33.0,26.3,60,45,33,29.77,29.62,34,13,34,0.00
2013-4-6,59.6,50.3,40.6,33.5,30.2,27.2,61,47,30,29.79,29.69,32,8,37,0.00
2013-4-7,56.7,46.2,37.1,38.2,32.6,27.4,81,60,36,29.74,29.48,33,7,33,0.04
2013-4-8,41.0,24.6,18.0,36.3,20.1,13.1,91,83,71,30.01,29.58,46,22,46,0.00
2013-4-9,25.7,20.3,16.4,14.7,12.7,8.7,86,72,51,30.16,30.01,33,15,34,0.00
2013-4-10,40.7,25.9,9.8,21.3,14.5,5.3,87,64,44,30.11,29.75,21,5,21,0.00
2013-4-11,54.2,42.1,25.4,33.8,25.9,19.4,82,56,32,29.81,29.72,32,7,32,0.00
2013-4-12,48.9,41.1,32.9,33.7,25.7,21.4,88,56,36,29.92,29.66,29,6,29,0.00
2013-4-13,53.2,37.9,32.0,36.3,28.2,20.7,95,70,38,29.66,29.30,35,9,40,0.04
2013-4-14,39.9,33.0,26.7,25.6,20.6,15.0,77,61,41,29.77,29.52,37,8,37,0.00
2013-4-15,31.3,25.8,20.2,20.1,16.3,12.6,84,68,48,29.93,29.74,33,12,33,0.00
2013-4-16,29.7,25.5,21.8,19.5,16.3,12.4,84,68,51,30.04,29.83,30,13,30,0.00
2013-4-17,32.7,25.5,20.0,17.5,15.0,11.1,82,65,43,30.10,30.03,29,13,29,0.00
2013-4-18,47.7,33.5,15.3,21.2,16.2,9.8,83,53,28,30.08,29.96,33,6,33,0.00
2013-4-19,57.4,45.2,27.5,30.4,23.6,13.1,61,43,29,29.97,29.72,33,9,33,0.00
2013-4-20,56.7,46.7,33.5,38.6,30.3,23.6,75,54,32,29.87,29.74,33,3,33,0.02
2013-4-21,45.7,36.3,26.0,35.1,29.7,23.4,94,78,61,29.98,29.86,34,10,34,0.00
2013-4-22,31.1,25.8,19.8,23.3,19.8,14.1,90,79,52,30.20,29.98,32,15,32,0.00
2013-4-23,39.9,27.9,14.0,23.0,15.7,8.9,81,62,41,30.19,29.99,18,4,18,0.00
2013-4-24,52.1,38.7,24.9,29.5,22.7,18.2,79,55,31,30.10,29.87,29,5,29,0.00
2013-4-25,64.8,49.9,32.1,29.8,22.1,13.4,78,40,17,29.88,29.75,33,7,33,0.00
2013-4-26,71.8,57.3,40.4,28.5,24.7,17.6,50,30,13,30.04,29.88,25,8,25,0.00
2013-4-27,75.5,61.7,46.6,34.2,26.9,22.2,45,28,16,30.02,29.80,35,10,35,0.00
2013-4-28,62.7,57.1,51.8,38.8,33.3,26.7,60,41,27,29.91,29.73,33,7,33,0.00
2013-4-29,63.9,51.0,39.5,38.1,33.2,23.4,90,54,28,29.73,29.46,44,12,44,0.09
2013-4-30,43.8,37.6,31.6,29.4,22.1,10.4,86,56,27,30.04,29.67,28,12,30,0.00
2013-5-1,45.8,36.2,28.9,26.4,20.1,11.4,80,55,26,30.40,30.04,25,9,25,0.00
2013-5-2,57.9,42.8,26.4,29.9,22.9,17.1,93,52,22,30.45,30.17,24,5,24,0.00
2013-5-3,62.7,48.6,34.0,39.6,27.0,20.0,77,46,20,30.18,29.99,26,5,26,0.00
2013-5-4,50.9,45.9,42.3,44.4,41.3,39.6,92,84,72,30.11,30.04,25,10,26,0.24
2013-5-5,62.7,51.4,35.7,44.0,36.9,30.6,96,62,31,30.09,29.93,16,2,16,0.00
2013-5-6,70.0,57.0,39.3,41.4,35.2,31.1,86,48,25,29.95,29.81,16,2,16,0.00
2013-5-7,75.0,61.6,43.1,39.5,34.2,21.6,72,40,14,29.87,29.76,25,4,25,0.00
2013-5-8,70.4,60.4,49.8,39.9,36.2,31.7,61,42,25,30.01,29.87,33,11,33,0.00
2013-5-9,72.3,59.1,44.5,40.6,35.9,24.2,71,45,17,30.05,29.97,31,7,31,0.00
2013-5-10,72.4,58.8,46.1,41.6,37.7,30.4,68,47,22,30.22,30.04,38,8,38,0.00
2013-5-11,73.8,59.7,42.1,43.0,34.1,27.2,62,40,23,30.23,30.01,21,3,21,0.00
2013-5-12,83.5,68.0,48.9,44.3,39.6,36.3,66,38,19,30.05,29.90,20,4,20,0.00
2013-5-13,87.6,75.1,61.5,46.1,39.8,34.4,51,30,16,29.97,29.75,38,10,38,0.00
2013-5-14,81.0,69.3,57.9,45.4,40.8,32.9,57,37,18,29.86,29.73,34,8,34,0.00
2013-5-15,75.7,63.5,52.5,42.6,32.6,25.0,48,32,23,29.92,29.75,33,9,33,0.00
2013-5-16,67.7,58.7,52.3,49.9,44.7,40.9,81,61,42,29.81,29.71,33,4,33,0.04
2013-5-17,62.9,54.5,49.7,50.9,47.8,44.2,93,78,55,29.81,29.72,23,4,23,0.04
2013-5-18,55.2,51.7,49.0,50.2,47.8,45.3,96,87,72,29.86,29.79,24,9,24,0.27
2013-5-19,51.9,49.0,46.8,46.8,44.5,41.4,95,84,75,29.95,29.83,42,16,42,0.30
2013-5-20,56.4,50.7,44.3,47.7,44.8,38.8,91,80,62,30.04,29.93,34,14,34,0.10
2013-5-21,67.8,54.5,40.9,42.4,34.3,22.8,84,52,19,30.03,29.80,16,4,16,0.00
2013-5-22,65.8,54.2,42.4,50.2,43.1,39.2,93,69,40,29.83,29.71,31,6,31,0.05
2013-5-23,72.5,57.5,48.6,52.4,48.5,28.6,95,75,39,29.80,29.59,38,8,38,0.15
2013-5-24,70.8,59.9,50.0,50.0,34.9,20.5,92,45,18,29.87,29.69,33,10,33,0.03
2013-5-25,76.8,61.5,44.7,44.8,36.4,28.0,67,41,20,29.85,29.73,33,7,33,0.00
2013-5-26,72.3,61.3,50.6,49.0,43.5,40.5,74,54,33,29.89,29.73,24,5,24,0.00
2013-5-27,67.5,58.7,50.8,49.7,41.8,31.4,90,57,28,29.84,29.71,39,10,39,0.04
2013-5-28,70.0,57.4,48.3,47.5,42.5,35.6,85,61,29,29.74,29.60,28,7,28,0.01
2013-5-29,53.3,50.2,46.9,47.1,45.4,43.5,91,83,73,29.66,29.60,33,14,33,0.46
2013-5-30,57.7,53.1,48.8,46.6,42.1,35.8,91,68,46,29.77,29.60,33,10,33,0.01
2013-5-31,58.7,51.5,46.6,43.0,39.4,35.4,82,64,44,30.11,29.76,33,11,40,0.01
2013-6-1,66.7,56.3,44.0,46.8,40.8,38.3,83,59,36,30.15,29.97,30,4,30,0.00
2013-6-2,77.2,64.1,49.4,51.7,43.6,37.6,81,51,25,29.97,29.58,30,4,30,0.00
2013-6-3,68.0,56.4,46.3,51.4,37.4,28.9,86,52,26,29.95,29.64,42,17,42,0.00
2013-6-4,53.6,47.8,42.6,39.9,37.6,35.5,80,68,56,30.14,29.95,25,7,25,0.00
2013-6-5,69.5,55.4,37.6,41.8,37.1,33.3,89,55,29,30.14,29.94,18,2,18,0.00
2013-6-6,76.2,64.4,48.2,48.5,43.2,38.0,71,48,31,29.99,29.92,16,3,16,0.00
2013-6-7,83.3,68.5,52.6,51.4,47.4,43.8,77,50,26,29.95,29.65,32,3,32,0.00
2013-6-8,76.3,67.6,56.9,52.2,41.6,34.0,71,41,22,29.88,29.71,46,9,46,0.00
2013-6-9,89.1,70.3,49.7,48.4,42.7,39.3,80,42,19,29.90,29.66,31,7,31,0.00
2013-6-10,80.0,69.0,58.6,53.1,46.6,39.8,64,46,29,29.81,29.68,39,8,39,0.00
2013-6-11,78.0,66.1,54.5,56.0,50.9,45.5,83,60,34,29.94,29.71,46,5,46,0.00
2013-6-12,73.3,62.6,52.0,56.0,50.8,45.5,88,67,44,30.02,29.88,23,4,23,0.00
2013-6-13,84.5,66.5,53.1,57.7,49.1,43.0,84,57,24,29.90,29.68,45,8,45,0.06
2013-6-14,68.2,58.2,44.3,47.9,37.2,23.7,92,52,20,30.00,29.84,37,12,37,0.00
2013-6-15,76.3,63.2,46.4,41.7,33.2,26.6,64,35,16,30.01,29.87,27,4,27,0.00
2013-6-16,78.7,65.0,49.4,49.5,42.0,35.7,66,45,23,30.02,29.93,25,6,25,0.00
2013-6-17,81.8,68.9,56.6,50.3,46.7,40.5,71,48,25,30.05,29.91,14,3,17,0.00
2013-6-18,88.0,71.3,55.7,50.1,45.9,39.0,72,44,19,29.93,29.72,51,6,51,0.00
2013-6-19,90.8,72.7,54.0,49.2,41.2,26.7,69,36,12,29.74,29.44,42,10,42,0.00
2013-6-20,73.7,63.4,53.6,36.7,28.4,20.3,42,28,16,29.88,29.71,31,10,31,0.00
2013-6-21,70.3,61.3,52.7,46.5,40.8,34.4,65,48,30,29.92,29.86,28,10,28,0.00
2013-6-22,68.3,57.0,47.9,51.1,46.4,40.5,89,69,47,29.94,29.82,31,6,31,0.02
2013-6-23,78.9,61.6,44.0,46.5,41.3,35.2,85,53,21,29.93,29.68,17,4,22,0.00
2013-6-24,83.5,68.6,53.1,51.8,44.6,38.6,71,44,22,29.70,29.57,39,5,39,0.00
2013-6-25,80.6,72.2,65.1,47.1,43.4,37.8,48,36,23,29.86,29.64,33,13,33,0.00
2013-6-26,85.5,74.2,60.9,52.0,47.8,43.1,61,41,24,30.02,29.84,25,6,25,0.00
2013-6-27,89.3,74.2,55.7,55.2,51.4,48.3,81,48,26,30.12,30.01,20,4,20,0.00
2013-6-28,88.0,76.6,63.4,56.2,53.2,49.4,68,46,27,30.17,30.08,16,4,20,0.00
2013-6-29,90.2,74.4,61.1,57.9,54.1,50.5,77,52,26,30.12,29.97,40,4,40,0.00
2013-6-30,88.6,73.9,56.5,58.8,55.6,49.3,88,56,29,30.09,30.00,18,3,19,0.00
2013-7-1,87.6,77.0,63.2,60.8,54.9,49.7,77,49,28,30.13,30.06,22,5,22,0.00
2013-7-2,91.6,76.5,58.5,59.4,51.2,37.2,79,46,16,30.11,29.94,17,4,17,0.00
2013-7-3,91.0,77.2,62.0,57.0,50.2,44.1,64,42,21,29.94,29.82,33,7,35,0.00
2013-7-4,90.1,73.9,62.6,63.5,56.1,47.8,91,56,30,29.90,29.78,46,6,46,0.35
2013-7-5,77.5,67.1,59.4,63.5,58.6,54.0,95,76,46,29.84,29.75,31,5,31,0.05
2013-7-6,81.5,67.8,57.2,60.0,55.2,48.5,86,66,37,29.93,29.78,37,4,39,0.18
2013-7-7,87.1,68.7,54.4,59.2,54.2,47.8,93,64,28,29.95,29.82,35,5,35,0.03
2013-7-8,88.3,72.6,58.7,60.1,53.8,47.3,86,55,27,29.97,29.82,34,6,34,0.02
2013-7-9,83.8,71.5,60.2,59.0,53.7,48.7,87,57,32,30.09,29.95,23,5,23,0.00
2013-7-10,92.2,74.5,58.0,58.1,51.8,43.9,83,50,21,30.05,29.88,14,2,14,0.00
2013-7-11,94.3,75.9,61.9,61.0,50.7,39.5,66,43,17,29.88,29.72,19,4,23,0.00
2013-7-12,84.0,72.5,60.6,60.5,53.3,43.0,88,55,27,29.90,29.81,23,6,23,0.01
2013-7-13,87.7,71.3,54.3,58.6,50.3,40.5,81,50,23,30.06,29.85,33,8,33,0.00
2013-7-14,84.8,70.1,56.3,57.1,52.7,46.0,79,57,27,30.13,29.95,26,5,26,0.00
2013-7-15,94.3,76.9,59.4,59.4,50.7,39.2,80,46,16,30.00,29.84,13,2,13,0.00
2013-7-16,70.5,63.7,60.0,55.7,51.5,46.4,84,65,45,30.12,29.89,39,14,39,0.00
2013-7-17,87.7,69.2,56.2,61.2,56.6,52.2,91,67,36,30.12,29.96,32,4,32,0.18
2013-7-18,87.6,74.5,59.3,62.6,55.9,38.5,93,57,30,30.07,29.97,18,4,18,0.00
2013-7-19,89.8,73.3,54.8,53.6,47.9,42.5,78,45,22,30.05,29.89,19,3,19,0.00
2013-7-20,87.7,75.2,60.3,54.1,46.3,41.0,71,38,23,29.95,29.82,18,4,18,0.00
2013-7-21,89.5,74.6,56.1,54.9,44.5,30.1,73,40,13,29.86,29.78,21,4,21,0.00
2013-7-22,92.6,74.6,54.5,52.5,43.9,35.0,72,38,17,29.92,29.79,13,4,17,0.00
2013-7-23,88.6,76.5,60.9,51.6,44.0,36.1,58,34,17,30.04,29.92,18,4,18,0.00
2013-7-24,89.0,74.8,58.8,57.5,50.3,35.1,77,46,17,30.05,29.89,20,4,20,0.00
2013-7-25,85.1,72.7,60.6,55.1,50.8,45.1,73,48,28,30.09,29.89,43,9,43,0.00
2013-7-26,86.2,71.4,56.3,55.1,52.0,44.9,83,54,25,30.13,29.97,18,3,18,0.00
2013-7-27,83.6,72.2,56.5,56.6,51.6,45.8,81,50,28,29.98,29.84,21,3,21,0.00
2013-7-28,79.0,67.6,56.9,57.9,52.2,48.1,85,60,37,29.88,29.79,31,5,31,0.02
2013-7-29,75.9,64.5,52.3,55.6,52.3,49.5,90,67,43,29.97,29.86,18,5,21,0.00
2013-7-30,79.0,64.6,52.7,58.9,52.8,45.4,96,68,37,30.15,29.96,49,3,49,0.51
2013-7-31,83.0,67.5,52.3,58.2,52.3,38.9,95,64,21,30.17,30.01,15,4,19,0.00
2013-8-1,85.9,72.1,59.6,59.5,54.8,50.8,89,57,31,30.07,29.76,33,8,42,0.18
2013-8-2,83.5,67.2,53.9,58.3,53.8,44.2,95,66,31,29.95,29.80,42,8,42,0.00
2013-8-3,81.5,68.0,59.4,59.1,56.7,53.0,90,69,40,30.05,29.92,29,7,29,0.00
2013-8-4,84.0,69.6,56.4,59.0,54.7,49.2,89,62,33,30.02,29.91,31,5,31,0.00
2013-8-5,87.8,71.4,57.6,57.5,53.0,44.9,88,56,25,29.98,29.80,33,5,33,0.05
2013-8-6,81.8,70.0,54.5,53.7,47.0,41.1,83,47,24,29.98,29.88,27,7,27,0.00
2013-8-7,84.8,69.7,52.9,52.2,47.4,41.9,83,49,25,29.98,29.86,21,3,21,0.00
2013-8-8,82.2,68.8,51.0,55.6,49.6,42.3,82,53,30,29.99,29.91,22,4,22,0.00
2013-8-9,71.6,64.9,57.7,58.1,53.7,51.1,86,67,53,30.08,29.98,22,4,22,0.02
2013-8-10,82.5,66.5,51.2,56.0,50.3,39.3,92,61,23,30.04,29.95,34,5,34,0.00
2013-8-11,82.9,67.5,51.7,52.9,48.1,43.0,85,54,27,30.04,29.96,35,5,35,0.00
2013-8-12,86.5,70.0,52.7,57.7,48.0,42.9,78,48,24,30.04,29.96,30,4,30,0.00
2013-8-13,82.0,66.9,53.1,54.1,49.5,44.3,83,56,28,30.08,29.99,38,5,38,0.02
2013-8-14,83.8,66.4,50.3,57.9,48.5,42.5,90,57,24,30.07,29.94,12,2,12,0.00
2013-8-15,89.0,70.7,54.9,52.6,47.3,37.3,81,49,18,30.02,29.93,13,4,13,0.00
2013-8-16,94.2,74.4,52.7,52.8,44.2,33.8,74,39,14,30.00,29.88,16,3,16,0.00
2013-8-17,91.8,75.1,55.8,52.9,43.7,32.1,64,35,19,29.98,29.88,14,3,14,0.00
2013-8-18,88.2,73.5,59.5,56.9,48.5,42.9,78,44,23,29.99,29.89,22,5,22,0.00
2013-8-19,91.3,74.7,55.6,56.3,48.7,43.1,75,44,19,29.98,29.84,13,3,13,0.00
2013-8-20,89.8,76.7,63.1,52.2,43.3,35.7,64,33,18,29.95,29.84,16,4,16,0.00
2013-8-21,84.8,74.0,62.9,53.6,46.0,39.1,60,38,24,30.03,29.89,25,8,25,0.00
2013-8-22,86.3,71.0,57.7,59.7,53.6,49.0,85,57,31,30.05,29.91,26,4,26,0.00
2013-8-23,89.0,73.3,57.5,58.4,53.6,48.8,88,54,26,29.93,29.78,23,5,23,0.00
2013-8-24,83.8,71.8,62.7,57.8,52.7,43.3,72,52,30,29.95,29.84,46,5,46,0.01
2013-8-25,86.4,73.3,60.4,56.0,49.5,42.4,74,46,22,30.00,29.89,18,4,18,0.00
2013-8-26,89.3,74.8,61.3,58.2,51.0,43.3,69,46,22,29.98,29.89,33,6,33,0.02
2013-8-27,85.3,73.2,61.6,57.2,52.8,47.4,74,51,28,30.00,29.93,22,4,28,0.00
2013-8-28,92.0,74.4,59.4,58.6,53.9,47.8,86,53,25,29.98,29.87,25,5,25,0.00
2013-8-29,88.0,70.1,56.1,62.1,54.0,49.3,86,60,27,30.08,29.97,52,4,52,0.02
2013-8-30,89.9,69.9,54.6,59.6,54.1,46.9,91,62,23,30.04,29.90,41,4,41,0.07
2013-8-31,81.6,71.0,57.6,51.0,46.2,43.5,67,43,28,30.05,29.92,21,8,29,0.00
2013-9-1,87.7,68.0,48.3,49.0,44.9,40.1,81,48,19,30.05,29.91,15,4,15,0.00
2013-9-2,78.7,68.0,55.7,62.1,49.4,40.3,79,53,31,29.94,29.89,13,3,17,0.00
2013-9-3,87.3,74.3,62.6,60.5,56.3,50.8,85,57,30,30.00,29.92,13,2,14,0.00
2013-9-4,86.8,72.7,59.5,63.0,58.8,52.6,94,64,36,30.08,29.99,45,5,45,0.02
2013-9-5,90.8,75.4,59.3,60.3,56.5,52.9,83,56,28,30.05,29.90,45,4,45,0.10
2013-9-6,85.9,71.0,58.4,62.3,57.6,48.8,90,65,30,30.03,29.92,46,7,46,0.23
2013-9-7,84.8,70.8,59.8,64.2,57.5,48.6,89,66,29,30.03,29.90,34,4,34,0.04
2013-9-8,75.8,65.3,59.1,61.0,55.9,51.3,89,73,49,29.99,29.82,24,3,24,0.00
2013-9-9,73.9,64.0,52.5,55.2,48.2,43.9,90,59,35,29.99,29.85,25,4,25,0.00
2013-9-10,77.5,65.0,52.2,51.1,48.0,43.9,81,57,34,30.06,29.98,14,3,14,0.00
2013-9-11,81.0,65.8,49.2,52.5,46.4,39.4,85,54,23,30.16,30.05,18,3,18,0.00
2013-9-12,74.3,65.0,54.3,53.7,49.9,45.4,77,59,42,30.19,30.02,25,5,25,0.00
2013-9-13,69.1,60.2,53.9,59.0,53.9,49.6,92,80,58,30.02,29.83,16,2,16,0.03
2013-9-14,61.3,58.6,56.2,57.1,55.5,52.8,94,90,83,30.01,29.84,21,6,21,0.68
2013-9-15,69.4,61.3,55.7,58.8,55.9,52.7,94,83,66,30.10,29.98,20,3,20,0.02
2013-9-16,79.3,64.9,51.2,57.7,53.5,49.1,95,70,40,29.98,29.80,19,4,19,0.00
2013-9-17,76.0,62.2,53.1,99.9,51.5,46.0,89,69,35,29.86,29.63,25,6,34,0.17
2013-9-18,68.0,56.8,49.4,52.0,44.5,35.6,94,66,34,29.91,29.66,40,10,40,0.03
2013-9-19,62.0,52.3,40.6,43.7,39.8,36.5,88,64,44,30.07,29.91,14,1,20,0.00
2013-9-20,70.6,54.5,39.3,44.3,39.2,33.8,92,61,26,30.05,29.79,20,3,20,0.00
2013-9-21,81.5,61.2,41.9,45.2,39.6,33.9,83,50,19,29.79,29.57,15,2,15,0.00
2013-9-22,72.6,62.2,54.1,46.0,42.6,39.6,68,49,34,29.60,29.50,30,3,30,0.00
2013-9-23,69.0,60.0,46.6,43.7,37.1,31.7,78,45,27,29.87,29.60,40,14,40,0.00
2013-9-24,74.5,60.5,45.1,41.0,37.1,32.8,75,44,22,29.89,29.60,37,7,37,0.00
2013-9-25,56.5,48.4,44.9,46.5,43.2,38.4,94,83,54,29.68,29.58,29,5,29,0.50
2013-9-26,47.5,43.6,39.7,43.8,38.7,35.8,96,83,66,29.87,29.64,23,9,26,0.00
2013-9-27,44.4,39.6,36.5,38.6,36.4,34.4,95,88,76,29.90,29.83,22,7,22,0.14
2013-9-28,61.3,47.5,35.6,42.0,37.7,34.0,96,72,43,29.91,29.84,31,6,31,0.00
2013-9-29,66.6,56.3,44.9,45.5,40.0,36.4,83,58,34,29.84,29.63,40,13,43,0.00
2013-9-30,70.1,54.5,42.6,46.9,41.0,35.5,82,62,36,29.81,29.56,40,8,44,0.00
2013-10-1,65.2,51.7,36.9,40.6,36.2,31.6,84,58,35,29.87,29.77,15,2,15,0.00
2013-10-2,57.1,48.8,40.8,41.1,35.6,31.7,88,62,42,29.99,29.82,32,6,32,0.02
2013-10-3,44.4,36.9,31.7,42.2,35.3,31.0,98,94,88,30.07,29.76,39,13,39,0.06
2013-10-4,35.4,31.9,27.4,33.8,30.6,24.0,98,95,86,30.27,30.07,35,13,35,0.01
2013-10-5,42.7,33.1,23.1,34.4,28.1,21.1,93,82,67,30.20,30.13,14,3,14,0.00
2013-10-6,58.8,42.8,31.2,44.7,36.0,28.3,92,78,52,30.16,30.01,18,2,18,0.00
2013-10-7,62.1,46.4,34.3,46.4,39.6,32.2,95,79,52,30.01,29.70,15,2,15,0.00
2013-10-8,57.2,48.6,40.6,41.2,37.5,34.4,90,67,47,29.86,29.66,27,6,27,0.00
2013-10-9,49.6,43.6,37.2,40.6,36.3,32.1,94,76,64,29.95,29.81,15,2,15,0.00
2013-10-10,48.8,41.9,33.1,44.5,39.3,31.5,96,91,80,29.81,29.63,20,1,20,0.09
2013-10-11,51.4,43.8,31.1,43.6,32.3,23.7,92,67,35,29.95,29.67,37,13,37,0.00
2013-10-12,51.4,39.9,27.6,36.7,32.1,25.3,94,75,49,29.99,29.92,14,2,17,0.00
2013-10-13,44.8,39.5,34.8,36.5,34.4,31.4,91,82,72,30.01,29.94,32,8,32,0.02
2013-10-14,37.5,36.2,34.5,34.4,32.8,30.9,93,87,81,30.23,29.96,36,16,36,0.00
2013-10-15,45.5,37.6,29.2,31.3,28.4,25.3,90,71,47,30.23,30.04,14,3,14,0.00
2013-10-16,48.8,36.1,25.7,33.8,29.2,23.4,94,78,51,30.04,29.92,19,2,19,0.00
2013-10-17,40.0,35.8,33.5,35.0,32.2,30.2,94,87,70,30.07,30.00,39,6,39,0.01
2013-10-18,50.1,38.1,27.4,33.2,28.3,21.0,89,70,34,30.10,29.95,27,5,27,0.00
2013-10-19,56.4,41.5,27.4,40.2,31.1,24.0,89,69,43,29.95,29.81,31,2,31,0.01
2013-10-20,52.0,43.5,36.6,39.9,34.7,30.0,90,73,46,29.98,29.88,32,9,32,0.02
2013-10-21,55.1,44.3,34.9,39.8,36.1,32.2,93,74,52,30.03,29.97,11,1,13,0.00
2013-10-22,60.4,45.8,33.8,41.8,36.5,30.6,91,72,44,30.07,29.98,12,4,13,0.00
2013-10-23,60.4,46.7,32.9,39.0,35.5,28.8,90,67,39,30.09,30.02,11,2,11,0.00
2013-10-24,56.8,44.4,33.4,41.1,37.2,31.3,94,77,54,30.13,30.04,11,1,11,0.00
2013-10-25,64.6,45.9,33.9,41.6,35.6,30.8,94,71,32,30.14,30.03,21,2,21,0.00
2013-10-26,62.7,46.2,33.0,39.9,34.8,28.8,88,67,38,30.16,29.93,15,2,15,0.00
2013-10-27,61.3,46.0,34.3,39.0,32.5,27.6,83,62,31,29.93,29.72,37,5,37,0.00
2013-10-28,34.9,28.0,23.0,30.3,25.2,19.9,93,89,83,29.97,29.87,44,18,44,0.00
2013-10-29,33.1,27.9,22.7,30.6,24.3,19.9,93,86,77,29.96,29.78,13,1,13,0.00
2013-10-30,38.9,32.7,29.5,37.0,31.2,28.0,100,94,87,29.78,29.72,11,1,11,0.01
2013-10-31,53.9,38.7,28.0,38.6,31.5,27.3,97,78,41,29.87,29.68,33,5,39,0.01
2013-11-1,53.3,45.2,39.5,27.8,25.8,23.8,59,47,33,30.05,29.87,26,10,26,0.00
2013-11-2,53.0,39.1,27.6,33.2,28.2,23.7,87,66,43,30.01,29.54,19,3,19,0.00
2013-11-3,43.2,37.3,27.4,34.2,24.5,13.8,82,61,32,29.79,29.52,26,5,26,0.00
2013-11-4,39.1,30.9,22.5,25.5,19.1,13.7,89,63,38,29.94,29.79,24,3,24,0.00
2013-11-5,41.2,29.4,16.2,24.9,16.6,10.5,94,63,29,30.00,29.90,37,7,37,0.00
2013-11-6,46.9,36.3,26.9,24.0,20.4,16.7,72,54,36,30.16,29.94,32,4,32,0.00
2013-11-7,44.6,34.1,23.4,28.6,24.3,17.8,82,68,49,30.16,29.66,17,2,17,0.00
2013-11-8,51.3,43.8,32.3,33.7,25.2,20.0,90,51,32,29.89,29.61,34,12,42,0.01
2013-11-9,47.7,40.5,30.2,27.9,25.4,22.7,75,55,41,30.07,29.89,21,3,26,0.00
2013-11-10,44.7,35.4,28.4,32.5,27.8,23.1,90,74,62,30.08,29.98,17,1,17,0.00
2013-11-11,37.5,30.6,26.2,28.9,26.2,23.6,92,84,70,30.36,30.08,17,3,21,0.00
2013-11-12,54.9,36.7,22.9,35.5,28.4,21.1,100,75,44,30.36,30.13,18,2,18,0.00
2013-11-13,49.6,40.9,31.7,34.6,31.1,23.4,83,69,51,30.14,29.93,23,2,23,0.00
2013-11-14,48.3,36.3,27.7,35.3,27.8,22.3,85,72,51,30.01,29.63,16,1,16,0.00
2013-11-15,48.4,36.5,24.1,29.4,21.4,17.0,88,58,31,29.64,29.33,33,10,33,0.00
2013-11-16,46.2,38.6,31.6,27.9,21.9,18.6,84,52,35,29.45,29.23,32,10,32,0.00
2013-11-17,45.2,36.6,29.3,27.0,16.0,12.8,82,44,29,29.86,29.45,40,9,40,0.00
2013-11-18,52.6,38.5,26.1,22.9,18.5,13.2,64,45,28,29.92,29.71,23,4,23,0.00
2013-11-19,57.3,44.2,28.4,31.0,25.8,15.9,65,49,35,29.72,29.57,36,8,36,0.00
2013-11-20,49.8,26.6,11.4,29.2,17.5,5.9,88,70,43,30.13,29.63,31,12,40,0.00
2013-11-21,19.5,11.6,2.8,11.4,5.9,-0.5,88,78,65,30.35,30.11,14,1,14,0.00
2013-11-22,26.9,9.3,-2.8,12.9,4.3,-6.6,90,81,54,30.41,30.32,6,0,6,0.00
2013-11-23,24.0,12.7,2.6,16.0,7.5,-0.9,93,80,67,30.41,30.10,8,0,8,0.00
2013-11-24,32.8,18.6,5.0,19.7,12.2,0.9,90,77,54,30.10,29.94,9,0,9,0.00
2013-11-25,41.7,28.0,17.7,27.8,20.8,12.7,85,75,56,30.21,30.03,13,1,13,0.00
2013-11-26,39.7,28.4,20.2,27.9,22.5,17.2,90,79,61,30.23,30.03,12,0,12,0.00
2013-11-27,45.4,31.9,25.1,30.7,25.1,20.7,90,77,55,30.03,29.94,10,1,10,0.00
2013-11-28,38.6,29.0,18.6,30.6,24.2,15.1,94,82,72,30.01,29.93,8,0,8,0.00
2013-11-29,46.2,35.9,25.7,33.6,28.4,22.9,90,75,50,30.01,29.93,22,2,22,0.00
2013-11-30,47.8,42.4,30.1,32.4,28.8,24.8,81,59,46,30.04,29.95,29,9,37,0.00
2013-12-1,46.9,38.9,32.7,32.9,29.7,26.2,82,70,52,29.96,29.64,23,4,23,0.00
2013-12-2,54.7,38.0,22.6,36.6,30.4,20.6,95,76,39,29.64,29.38,36,8,36,0.00
2013-12-3,20.6,10.1,4.7,18.9,7.5,1.4,97,89,86,29.89,29.56,39,19,39,0.00
2013-12-4,4.7,1.1,-4.8,1.4,-2.7,-8.9,86,84,81,29.99,29.88,26,9,27,0.00
2013-12-5,2.5,-4.3,-9.9,-2.0,-8.5,-14.4,85,81,80,30.02,29.94,10,2,11,0.00
2013-12-6,-4.2,-8.5,-12.4,-7.8,-13.0,-17.0,85,80,77,30.12,30.01,13,3,13,0.00
2013-12-7,-6.4,-11.2,-16.5,-11.2,-16.0,-21.1,81,79,76,30.09,29.81,10,2,11,0.00
2013-12-8,2.0,-7.1,-15.4,-0.2,-11.3,-19.7,93,81,78,29.96,29.78,12,2,12,0.00
2013-12-9,21.1,5.6,-12.6,8.5,-2.0,-16.5,85,72,53,29.94,29.87,47,11,47,0.00
2013-12-10,27.6,19.6,8.8,17.9,9.1,1.3,91,65,42,30.10,29.81,44,11,44,0.00
2013-12-11,18.8,11.8,5.4,12.8,7.9,2.4,91,84,75,30.13,30.08,10,1,10,0.00
2013-12-12,28.0,18.0,11.2,18.5,11.8,6.6,83,76,65,30.11,29.84,12,0,12,0.00
2013-12-13,36.9,26.6,16.6,24.9,19.7,11.5,90,76,51,30.07,29.80,17,1,17,0.00
2013-12-14,41.9,28.5,14.6,26.5,19.9,12.0,92,72,47,30.08,29.97,39,8,39,0.00
2013-12-15,48.6,42.4,27.0,26.8,23.2,19.4,74,47,38,29.98,29.88,51,26,51,0.00
2013-12-16,50.5,46.2,41.2,22.0,20.9,19.6,44,36,30,30.08,29.91,41,25,46,0.00
2013-12-17,48.2,39.3,29.4,28.4,23.4,19.9,74,54,36,30.09,29.78,46,7,46,0.00
2013-12-18,57.5,45.4,28.4,25.7,21.8,17.6,88,43,22,29.79,29.60,33,10,46,0.00
2013-12-19,28.4,12.8,5.1,25.6,8.2,1.1,94,81,73,29.90,29.60,48,15,48,0.00
2013-12-20,18.2,10.7,3.5,12.5,6.2,0.4,98,82,74,29.83,29.48,15,1,15,0.00
2013-12-21,30.0,24.3,16.8,22.6,16.4,9.6,96,73,44,29.83,29.47,25,4,29,0.00
2013-12-22,22.5,17.6,11.1,20.8,14.4,7.5,93,87,80,30.08,29.81,22,5,28,0.00
2013-12-23,26.3,17.5,8.3,20.1,13.9,5.2,92,86,76,30.08,29.79,18,1,18,0.00
2013-12-24,39.9,32.0,18.8,31.8,22.6,14.9,95,70,42,30.16,29.77,33,6,33,0.00
2013-12-25,27.9,20.8,12.5,20.6,15.2,9.6,99,79,66,30.20,30.03,18,1,18,0.00
2013-12-26,34.7,25.1,18.4,20.9,16.9,13.5,83,71,53,30.12,30.03,13,1,13,0.00
2013-12-27,38.3,27.7,20.9,26.1,20.6,16.3,93,75,60,30.09,29.83,13,1,13,0.00
2013-12-28,47.9,25.7,14.1,26.1,16.3,9.2,87,69,29,30.15,29.75,37,10,37,0.00
2013-12-29,35.6,19.2,8.5,18.9,12.6,5.2,93,76,49,30.15,29.80,28,3,28,0.00
2013-12-30,37.2,29.0,20.1,23.0,19.7,14.4,84,68,48,30.05,29.85,29,3,29,0.00
2013-12-31,44.1,35.1,27.7,32.5,24.9,20.3,91,68,46,29.91,29.78,42,8,42,0.00
2014-1-1,35.6,28.1,18.6,29.6,24.4,16.4,95,86,70,30.16,29.90,25,4,25,0.00
2014-1-2,27.5,20.1,13.0,21.0,16.5,10.5,93,86,73,30.08,29.78,15,1,15,0.00